createdAt,value
2017-09-18T00:00:45.666Z,127.0
2017-09-18T00:01:46.399Z,121.6
2017-09-18T00:02:47.170Z,120.9
2017-09-18T00:03:47.961Z,113.9
2017-09-18T00:04:48.988Z,114.6
2017-09-18T00:05:49.714Z,102.5
2017-09-18T00:06:50.436Z,108.3
2017-09-18T00:07:51.222Z,138.8
2017-09-18T00:08:51.932Z,150.7
2017-09-18T00:09:53.013Z,116.2
2017-09-18T00:10:53.782Z,114.8
2017-09-18T00:11:54.501Z,109.1
2017-09-18T00:12:55.290Z,120.5
2017-09-18T00:13:56.025Z,117.9
2017-09-18T00:14:57.007Z,124.7
2017-09-18T00:15:57.730Z,120.9
2017-09-18T00:16:58.523Z,94.4
2017-09-18T00:17:59.246Z,106.1
2017-09-18T00:18:59.971Z,127.7
2017-09-18T00:20:00.708Z,123.5
2017-09-18T00:21:01.492Z,107.5
2017-09-18T00:22:02.534Z,128.4
2017-09-18T00:23:03.271Z,101.5
2017-09-18T00:24:04.032Z,124.0
2017-09-18T00:25:04.824Z,123.4
2017-09-18T00:26:05.557Z,129.9
2017-09-18T00:27:06.739Z,131.2
2017-09-18T00:28:07.503Z,110.7
2017-09-18T00:29:08.282Z,114.7
2017-09-18T00:30:09.054Z,108.4
2017-09-18T00:31:09.773Z,122.1
2017-09-18T00:32:10.927Z,122.7
2017-09-18T00:33:11.714Z,117.8
2017-09-18T00:34:12.486Z,96.2
2017-09-18T00:35:13.195Z,129.3
2017-09-18T00:36:13.989Z,110.0
2017-09-18T00:37:15.156Z,108.8
2017-09-18T00:38:15.883Z,118.8
2017-09-18T00:39:16.664Z,113.9
2017-09-18T00:40:17.438Z,116.5
2017-09-18T00:41:18.175Z,111.8
2017-09-18T00:42:18.905Z,116.4
2017-09-18T00:43:19.690Z,116.4
2017-09-18T00:44:20.412Z,137.1
2017-09-18T00:45:21.144Z,133.9
2017-09-18T00:46:22.173Z,129.7
2017-09-18T00:47:22.907Z,102.5
2017-09-18T00:48:23.686Z,109.7
2017-09-18T00:49:24.421Z,114.1
2017-09-18T00:50:25.225Z,124.6
2017-09-18T00:51:26.207Z,87.3
2017-09-18T00:52:26.935Z,113.4
2017-09-18T00:53:27.658Z,120.0
2017-09-18T00:54:28.371Z,102.9
2017-09-18T00:55:29.136Z,136.3
2017-09-18T00:56:30.165Z,100.7
2017-09-18T00:57:30.944Z,117.5
2017-09-18T00:58:31.658Z,120.0
2017-09-18T00:59:32.377Z,107.8
2017-09-18T01:00:33.191Z,146.5
2017-09-18T01:01:34.289Z,99.2
2017-09-18T01:02:35.085Z,111.2
2017-09-18T01:03:35.814Z,112.5
2017-09-18T01:04:36.536Z,102.8
2017-09-18T01:05:37.340Z,121.8
2017-09-18T01:06:38.363Z,95.3
2017-09-18T01:07:39.165Z,94.2
2017-09-18T01:08:39.944Z,71.4
2017-09-18T01:09:40.675Z,120.5
2017-09-18T01:10:41.466Z,155.3
2017-09-18T01:11:42.589Z,132.9
2017-09-18T01:12:43.377Z,116.9
2017-09-18T01:13:44.180Z,86.6
2017-09-18T01:14:44.970Z,92.1
2017-09-18T01:15:45.692Z,100.0
2017-09-18T01:16:46.845Z,124.6
2017-09-18T01:17:47.574Z,133.9
2017-09-18T01:18:48.302Z,133.3
2017-09-18T01:19:49.068Z,121.6
2017-09-18T01:20:49.870Z,105.9
2017-09-18T01:21:50.950Z,112.5
2017-09-18T01:22:51.661Z,140.7
2017-09-18T01:23:52.450Z,147.3
2017-09-18T01:24:53.180Z,109.1
2017-09-18T01:25:53.945Z,133.9
2017-09-18T01:26:55.013Z,147.4
2017-09-18T01:27:55.739Z,126.9
2017-09-18T01:28:56.521Z,136.2
2017-09-18T01:29:57.244Z,127.2
2017-09-18T01:30:57.976Z,113.5
2017-09-18T01:31:59.163Z,148.2
2017-09-18T01:32:59.886Z,151.2
2017-09-18T01:34:00.684Z,157.1
2017-09-18T01:35:01.411Z,144.7
2017-09-18T01:36:02.143Z,104.4
2017-09-18T01:37:02.922Z,104.6
2017-09-18T01:38:03.657Z,118.5
2017-09-18T01:39:04.704Z,115.2
2017-09-18T01:40:05.448Z,117.1
2017-09-18T01:41:06.171Z,133.6
2017-09-18T01:42:06.913Z,135.4
2017-09-18T01:43:07.626Z,141.5
2017-09-18T01:44:08.674Z,143.4
2017-09-18T01:45:09.406Z,158.4
2017-09-18T01:46:10.211Z,144.1
2017-09-18T01:47:10.920Z,93.0
2017-09-18T01:48:11.646Z,117.4
2017-09-18T01:49:12.785Z,107.8
2017-09-18T01:50:13.510Z,97.0
2017-09-18T01:51:14.262Z,104.8
2017-09-18T01:52:15.055Z,120.5
2017-09-18T01:53:15.794Z,134.4
2017-09-18T01:54:16.660Z,157.2
2017-09-18T01:55:17.400Z,131.1
2017-09-18T01:56:18.122Z,129.8
2017-09-18T01:57:18.854Z,149.9
2017-09-18T01:58:19.578Z,135.3
2017-09-18T01:59:20.736Z,141.7
2017-09-18T02:00:21.522Z,134.9
2017-09-18T02:01:22.289Z,122.2
2017-09-18T02:02:23.017Z,143.8
2017-09-18T02:03:23.781Z,158.3
2017-09-18T02:04:24.875Z,123.6
2017-09-18T02:05:25.607Z,142.0
2017-09-18T02:06:26.384Z,156.5
2017-09-18T02:07:27.110Z,135.8
2017-09-18T02:08:27.851Z,157.8
2017-09-18T02:09:28.831Z,151.3
2017-09-18T02:10:29.623Z,185.0
2017-09-18T02:11:30.395Z,172.0
2017-09-18T02:12:31.129Z,161.1
2017-09-18T02:13:31.891Z,153.7
2017-09-18T02:14:33.035Z,153.6
2017-09-18T02:15:33.773Z,142.4
2017-09-18T02:16:34.552Z,139.4
2017-09-18T02:17:35.326Z,135.8
2017-09-18T02:18:36.111Z,144.4
2017-09-18T02:19:36.911Z,143.5
2017-09-18T02:20:37.634Z,179.1
2017-09-18T02:21:38.753Z,161.1
2017-09-18T02:22:39.496Z,151.5
2017-09-18T02:23:40.229Z,168.0
2017-09-18T02:24:40.959Z,139.6
2017-09-18T02:25:41.687Z,161.1
2017-09-18T02:26:42.710Z,176.2
2017-09-18T02:27:43.431Z,164.0
2017-09-18T02:28:44.167Z,174.0
2017-09-18T02:29:44.913Z,143.9
2017-09-18T02:30:45.708Z,161.9
2017-09-18T02:31:46.781Z,186.4
2017-09-18T02:32:47.509Z,195.4
2017-09-18T02:33:48.242Z,162.7
2017-09-18T02:34:48.979Z,139.6
2017-09-18T02:35:49.764Z,148.1
2017-09-18T02:36:50.860Z,162.9
2017-09-18T02:37:51.662Z,170.6
2017-09-18T02:38:52.388Z,194.5
2017-09-18T02:39:53.181Z,170.7
2017-09-18T02:40:53.906Z,195.4
2017-09-18T02:41:55.019Z,177.8
2017-09-18T02:42:55.745Z,184.9
2017-09-18T02:43:56.476Z,200.6
2017-09-18T02:44:57.195Z,208.6
2017-09-18T02:45:58.026Z,208.3
2017-09-18T02:46:59.012Z,173.4
2017-09-18T02:47:59.807Z,180.8
2017-09-18T02:49:00.580Z,188.3
2017-09-18T02:50:01.305Z,183.0
2017-09-18T02:51:02.042Z,191.5
2017-09-18T02:52:02.824Z,183.0
2017-09-18T02:53:03.919Z,154.7
2017-09-18T02:54:04.716Z,154.6
2017-09-18T02:55:05.484Z,184.5
2017-09-18T02:56:06.211Z,164.3
2017-09-18T02:57:06.932Z,169.4
2017-09-18T02:58:08.052Z,163.8
2017-09-18T02:59:08.784Z,146.2
2017-09-18T03:00:09.587Z,188.5
2017-09-18T03:01:10.389Z,187.9
2017-09-18T03:02:11.196Z,206.1
2017-09-18T03:03:11.923Z,235.9
2017-09-18T03:04:12.652Z,219.0
2017-09-18T03:05:13.783Z,211.7
2017-09-18T03:06:14.552Z,189.5
2017-09-18T03:07:15.286Z,172.5
2017-09-18T03:08:16.012Z,197.7
2017-09-18T03:09:16.813Z,231.3
2017-09-18T03:10:17.843Z,183.3
2017-09-18T03:11:18.569Z,218.3
2017-09-18T03:12:19.351Z,278.5
2017-09-18T03:13:20.093Z,276.8
2017-09-18T03:14:20.854Z,259.4
2017-09-18T03:15:22.385Z,257.3
2017-09-18T03:16:23.210Z,210.0
2017-09-18T03:17:24.015Z,214.7
2017-09-18T03:18:24.813Z,247.0
2017-09-18T03:19:25.543Z,271.8
2017-09-18T03:20:28.110Z,245.2
2017-09-18T03:21:29.472Z,222.7
2017-09-18T03:22:30.141Z,212.1
2017-09-18T03:23:30.863Z,191.5
2017-09-18T03:24:31.608Z,230.9
2017-09-18T03:25:32.718Z,230.4
2017-09-18T03:26:33.503Z,227.3
2017-09-18T03:27:34.250Z,198.4
2017-09-18T03:28:35.053Z,240.9
2017-09-18T03:29:35.786Z,187.3
2017-09-18T03:30:36.888Z,228.4
2017-09-18T03:31:37.667Z,205.3
2017-09-18T03:32:38.458Z,198.8
2017-09-18T03:33:39.186Z,159.1
2017-09-18T03:34:40.001Z,152.5
2017-09-18T03:35:41.125Z,186.9
2017-09-18T03:36:41.856Z,193.7
2017-09-18T03:37:42.588Z,222.7
2017-09-18T03:38:43.344Z,175.8
2017-09-18T03:39:44.064Z,156.2
2017-09-18T03:40:45.134Z,200.9
2017-09-18T03:41:45.870Z,184.6
2017-09-18T03:42:46.637Z,167.6
2017-09-18T03:43:47.355Z,159.7
2017-09-18T03:44:48.092Z,164.4
2017-09-18T03:45:48.903Z,198.0
2017-09-18T03:46:49.653Z,166.0
2017-09-18T03:47:50.390Z,170.4
2017-09-18T03:48:51.121Z,201.0
2017-09-18T03:49:51.915Z,247.3
2017-09-18T03:50:52.839Z,232.5
2017-09-18T03:51:53.612Z,236.6
2017-09-18T03:52:54.439Z,198.2
2017-09-18T03:53:55.165Z,193.2
2017-09-18T03:54:55.946Z,195.5
2017-09-18T03:55:56.746Z,170.3
2017-09-18T03:56:57.875Z,198.9
2017-09-18T03:57:58.602Z,146.1
2017-09-18T03:58:59.413Z,178.1
2017-09-18T04:00:00.216Z,204.7
2017-09-18T04:01:00.945Z,196.8
2017-09-18T04:02:02.034Z,205.1
2017-09-18T04:03:02.756Z,209.6
2017-09-18T04:04:03.563Z,205.4
2017-09-18T04:05:04.356Z,213.3
2017-09-18T04:06:05.207Z,214.2
2017-09-18T04:07:06.014Z,194.5
2017-09-18T04:08:06.740Z,194.1
2017-09-18T04:09:07.884Z,258.3
2017-09-18T04:10:08.697Z,240.2
2017-09-18T04:11:09.487Z,229.5
2017-09-18T04:12:10.284Z,196.1
2017-09-18T04:13:11.024Z,186.3
2017-09-18T04:14:11.755Z,196.4
2017-09-18T04:15:12.836Z,205.0
2017-09-18T04:16:13.584Z,220.0
2017-09-18T04:17:14.307Z,246.3
2017-09-18T04:18:15.045Z,269.9
2017-09-18T04:19:15.778Z,222.4
2017-09-18T04:20:16.846Z,205.4
2017-09-18T04:21:17.646Z,254.6
2017-09-18T04:22:18.459Z,286.2
2017-09-18T04:23:19.238Z,259.3
2017-09-18T04:24:19.969Z,197.9
2017-09-18T04:25:21.120Z,228.9
2017-09-18T04:26:21.925Z,257.4
2017-09-18T04:27:22.649Z,224.9
2017-09-18T04:28:23.387Z,257.9
2017-09-18T04:29:24.117Z,230.7
2017-09-18T04:30:25.227Z,229.5
2017-09-18T04:31:25.951Z,198.0
2017-09-18T04:32:26.705Z,241.3
2017-09-18T04:33:27.423Z,226.0
2017-09-18T04:34:28.155Z,222.0
2017-09-18T04:35:29.180Z,218.0
2017-09-18T04:36:29.917Z,246.5
2017-09-18T04:37:30.716Z,243.4
2017-09-18T04:38:31.443Z,256.8
2017-09-18T04:39:32.174Z,235.2
2017-09-18T04:40:33.149Z,270.3
2017-09-18T04:41:33.890Z,222.2
2017-09-18T04:42:34.617Z,202.6
2017-09-18T04:43:35.356Z,211.2
2017-09-18T04:44:36.178Z,276.5
2017-09-18T04:45:37.144Z,260.5
2017-09-18T04:46:37.874Z,211.1
2017-09-18T04:47:38.604Z,228.0
2017-09-18T04:48:39.336Z,223.0
2017-09-18T04:49:40.145Z,229.1
2017-09-18T04:50:41.057Z,225.4
2017-09-18T04:51:41.866Z,259.2
2017-09-18T04:52:42.596Z,299.0
2017-09-18T04:53:43.326Z,215.9
2017-09-18T04:54:44.115Z,226.6
2017-09-18T04:55:45.103Z,209.8
2017-09-18T04:56:45.910Z,270.2
2017-09-18T04:57:46.647Z,235.7
2017-09-18T04:58:47.375Z,244.3
2017-09-18T04:59:48.114Z,210.4
2017-09-18T05:00:48.855Z,237.4
2017-09-18T05:01:49.959Z,229.3
2017-09-18T05:02:50.735Z,238.2
2017-09-18T05:03:51.467Z,211.4
2017-09-18T05:04:52.204Z,215.9
2017-09-18T05:05:52.934Z,245.7
2017-09-18T05:06:54.065Z,281.7
2017-09-18T05:07:54.832Z,265.5
2017-09-18T05:08:55.629Z,287.5
2017-09-18T05:09:56.424Z,271.3
2017-09-18T05:10:57.146Z,306.3
2017-09-18T05:11:57.884Z,259.2
2017-09-18T05:12:58.960Z,219.5
2017-09-18T05:13:59.744Z,248.5
2017-09-18T05:15:00.471Z,250.2
2017-09-18T05:16:01.276Z,235.7
2017-09-18T05:17:02.119Z,254.8
2017-09-18T05:18:03.145Z,213.9
2017-09-18T05:19:03.877Z,256.1
2017-09-18T05:20:04.678Z,219.7
2017-09-18T05:21:05.475Z,199.7
2017-09-18T05:22:06.216Z,208.4
2017-09-18T05:23:07.193Z,220.0
2017-09-18T05:24:07.934Z,264.7
2017-09-18T05:25:08.681Z,191.7
2017-09-18T05:26:09.488Z,225.4
2017-09-18T05:27:11.211Z,233.4
2017-09-18T05:29:15.645Z,220.9
2017-09-18T05:30:16.347Z,202.5
2017-09-18T05:31:17.127Z,212.0
2017-09-18T05:32:17.927Z,215.5
2017-09-18T05:33:18.736Z,250.7
2017-09-18T05:34:19.554Z,261.0
2017-09-18T05:35:20.284Z,244.5
2017-09-18T05:36:21.014Z,228.9
2017-09-18T05:37:21.991Z,231.9
2017-09-18T05:38:22.733Z,233.6
2017-09-18T05:39:23.500Z,270.0
2017-09-18T05:40:24.292Z,261.3
2017-09-18T05:41:25.029Z,314.2
2017-09-18T05:42:26.075Z,313.8
2017-09-18T05:43:26.886Z,293.8
2017-09-18T05:44:27.618Z,299.9
2017-09-18T05:45:28.398Z,259.2
2017-09-18T05:46:29.176Z,280.3
2017-09-18T05:47:30.308Z,282.2
2017-09-18T05:48:31.043Z,296.4
2017-09-18T05:49:31.775Z,242.0
2017-09-18T05:50:32.585Z,254.4
2017-09-18T05:51:33.326Z,176.5
2017-09-18T05:52:34.526Z,280.8
2017-09-18T05:53:35.264Z,257.5
2017-09-18T05:54:35.992Z,251.5
2017-09-18T05:55:36.757Z,259.0
2017-09-18T05:56:37.564Z,266.4
2017-09-18T05:57:38.537Z,246.0
2017-09-18T05:58:39.265Z,241.8
2017-09-18T05:59:39.996Z,244.0
2017-09-18T06:00:40.795Z,206.5
2017-09-18T06:01:41.610Z,218.1
2017-09-18T06:02:42.344Z,230.6
2017-09-18T06:03:43.074Z,224.3
2017-09-18T06:04:43.806Z,217.4
2017-09-18T06:05:44.805Z,257.9
2017-09-18T06:06:45.538Z,293.0
2017-09-18T06:07:46.345Z,274.5
2017-09-18T06:08:47.092Z,246.9
2017-09-18T06:09:47.840Z,241.2
2017-09-18T06:10:48.819Z,288.0
2017-09-18T06:11:49.643Z,280.5
2017-09-18T06:12:50.424Z,273.8
2017-09-18T06:13:51.154Z,274.7
2017-09-18T06:14:51.911Z,265.2
2017-09-18T06:15:53.064Z,295.9
2017-09-18T06:16:53.818Z,281.4
2017-09-18T06:17:54.598Z,283.1
2017-09-18T06:18:55.335Z,291.4
2017-09-18T06:19:56.134Z,277.9
2017-09-18T06:20:57.165Z,235.6
2017-09-18T06:21:57.897Z,270.9
2017-09-18T06:22:58.626Z,212.5
2017-09-18T06:23:59.456Z,237.9
2017-09-18T06:25:00.255Z,303.9
2017-09-18T06:26:01.334Z,204.3
2017-09-18T06:27:02.067Z,204.4
2017-09-18T06:28:02.795Z,223.5
2017-09-18T06:29:03.527Z,257.5
2017-09-18T06:30:04.259Z,311.3
2017-09-18T06:31:05.371Z,296.5
2017-09-18T06:32:06.193Z,362.5
2017-09-18T06:33:06.883Z,265.5
2017-09-18T06:34:07.659Z,217.2
2017-09-18T06:35:08.469Z,233.2
2017-09-18T06:36:09.243Z,259.6
2017-09-18T06:37:10.395Z,246.5
2017-09-18T06:38:11.165Z,225.9
2017-09-18T06:39:11.966Z,232.7
2017-09-18T06:40:12.768Z,199.8
2017-09-18T06:41:13.580Z,247.7
2017-09-18T06:42:14.725Z,222.3
2017-09-18T06:43:15.446Z,209.9
2017-09-18T06:44:16.272Z,139.6
2017-09-18T06:45:17.056Z,171.5
2017-09-18T06:46:17.862Z,212.4
2017-09-18T06:47:18.936Z,163.0
2017-09-18T06:48:19.673Z,216.5
2017-09-18T06:49:20.397Z,219.1
2017-09-18T06:50:21.215Z,228.7
2017-09-18T06:51:21.954Z,214.0
2017-09-18T06:52:22.998Z,233.8
2017-09-18T06:53:23.789Z,250.1
2017-09-18T06:54:24.583Z,228.9
2017-09-18T06:55:25.319Z,229.0
2017-09-18T06:56:26.055Z,217.2
2017-09-18T06:57:27.183Z,234.3
2017-09-18T06:58:27.991Z,236.9
2017-09-18T06:59:28.725Z,179.4
2017-09-18T07:00:29.461Z,195.4
2017-09-18T07:01:30.194Z,197.7
2017-09-18T07:02:31.276Z,232.1
2017-09-18T07:03:32.013Z,243.3
2017-09-18T07:04:32.794Z,280.7
2017-09-18T07:05:33.525Z,264.8
2017-09-18T07:06:34.350Z,235.2
2017-09-18T07:07:35.126Z,283.2
2017-09-18T07:08:35.949Z,262.4
2017-09-18T07:09:36.733Z,212.0
2017-09-18T07:10:37.543Z,221.4
2017-09-18T07:11:38.345Z,260.1
2017-09-18T07:12:39.363Z,268.1
2017-09-18T07:13:40.110Z,265.6
2017-09-18T07:14:40.906Z,267.8
2017-09-18T07:15:41.643Z,266.9
2017-09-18T07:16:42.373Z,287.3
2017-09-18T07:17:43.406Z,289.6
2017-09-18T07:18:44.240Z,297.3
2017-09-18T07:19:45.051Z,272.3
2017-09-18T07:20:45.787Z,265.7
2017-09-18T07:21:46.537Z,258.8
2017-09-18T07:22:47.635Z,262.8
2017-09-18T07:23:48.367Z,254.4
2017-09-18T07:24:49.100Z,259.7
2017-09-18T07:25:49.918Z,307.2
2017-09-18T07:26:50.704Z,279.4
2017-09-18T07:27:51.466Z,292.7
2017-09-18T07:28:52.255Z,274.8
2017-09-18T07:29:53.276Z,265.8
2017-09-18T07:30:54.011Z,248.4
2017-09-18T07:31:54.796Z,212.5
2017-09-18T07:32:55.540Z,250.3
2017-09-18T07:33:56.344Z,214.7
2017-09-18T07:34:57.336Z,204.0
2017-09-18T07:35:58.125Z,210.5
2017-09-18T07:36:58.864Z,245.7
2017-09-18T07:37:59.602Z,200.2
2017-09-18T07:39:00.437Z,198.9
2017-09-18T07:40:01.255Z,181.4
2017-09-18T07:41:02.015Z,171.6
2017-09-18T07:42:03.054Z,211.3
2017-09-18T07:43:03.857Z,204.7
2017-09-18T07:44:04.596Z,209.3
2017-09-18T07:45:05.335Z,203.5
2017-09-18T07:46:06.064Z,211.6
2017-09-18T07:47:07.158Z,223.8
2017-09-18T07:48:07.949Z,244.8
2017-09-18T07:49:08.696Z,244.1
2017-09-18T07:50:09.486Z,235.3
2017-09-18T07:51:10.306Z,268.7
2017-09-18T07:52:11.297Z,243.5
2017-09-18T07:53:12.096Z,241.9
2017-09-18T07:54:12.896Z,227.7
2017-09-18T07:55:13.706Z,214.1
2017-09-18T07:56:14.526Z,223.2
2017-09-18T07:57:15.659Z,233.6
2017-09-18T07:58:16.396Z,237.6
2017-09-18T07:59:17.125Z,256.4
2017-09-18T08:00:17.864Z,211.7
2017-09-18T08:01:18.605Z,215.1
2017-09-18T08:02:19.731Z,204.1
2017-09-18T08:03:20.481Z,187.2
2017-09-18T08:04:21.215Z,211.3
2017-09-18T08:05:21.954Z,243.3
2017-09-18T08:06:22.684Z,211.9
2017-09-18T08:07:23.764Z,212.8
2017-09-18T08:08:24.504Z,209.3
2017-09-18T08:09:25.269Z,220.3
2017-09-18T08:10:26.011Z,192.4
2017-09-18T08:11:26.814Z,189.1
2017-09-18T08:12:27.872Z,195.3
2017-09-18T08:13:28.676Z,231.3
2017-09-18T08:14:29.486Z,244.1
2017-09-18T08:15:30.218Z,218.9
2017-09-18T08:16:30.955Z,215.3
2017-09-18T08:17:31.984Z,195.5
2017-09-18T08:18:33.149Z,248.6
2017-09-18T08:19:33.848Z,223.1
2017-09-18T08:20:34.560Z,214.4
2017-09-18T08:21:35.374Z,231.1
2017-09-18T08:22:36.526Z,185.9
2017-09-18T08:23:37.264Z,165.8
2017-09-18T08:24:38.006Z,171.6
2017-09-18T08:25:38.915Z,164.8
2017-09-18T08:26:39.716Z,138.5
2017-09-18T08:27:42.256Z,157.3
2017-09-18T08:28:43.762Z,119.8
2017-09-18T08:29:44.574Z,111.7
2017-09-18T08:30:45.374Z,121.6
2017-09-18T08:31:46.111Z,110.2
2017-09-18T08:32:47.317Z,115.5
2017-09-18T08:33:48.056Z,113.5
2017-09-18T08:34:48.795Z,108.3
2017-09-18T08:35:49.540Z,94.1
2017-09-18T08:36:50.348Z,84.8
2017-09-18T08:37:51.472Z,79.9
2017-09-18T08:38:52.188Z,60.9
2017-09-18T08:39:53.009Z,58.5
2017-09-18T08:40:53.826Z,66.5
2017-09-18T08:41:54.626Z,45.2
2017-09-18T08:42:55.525Z,42.2
2017-09-18T08:43:56.335Z,37.5
2017-09-18T08:44:57.069Z,43.1
2017-09-18T08:45:57.816Z,36.3
2017-09-18T08:46:58.609Z,38.3
2017-09-18T08:47:59.804Z,40.0
2017-09-18T08:49:00.539Z,32.5
2017-09-18T08:50:01.310Z,34.6
2017-09-18T08:51:02.080Z,33.0
2017-09-18T08:52:02.765Z,36.6
2017-09-18T08:53:03.863Z,30.4
2017-09-18T08:54:04.686Z,21.7
2017-09-18T08:55:05.504Z,22.5
2017-09-18T08:56:06.244Z,21.9
2017-09-18T08:57:06.986Z,19.9
2017-09-18T08:58:08.074Z,15.2
2017-09-18T08:59:08.815Z,16.6
2017-09-18T09:00:09.540Z,15.1
2017-09-18T09:01:10.359Z,14.0
2017-09-18T09:02:11.100Z,14.9
2017-09-18T09:03:12.139Z,17.3
2017-09-18T09:04:12.966Z,15.2
2017-09-18T09:05:13.711Z,13.7
2017-09-18T09:06:14.521Z,17.1
2017-09-18T09:07:15.338Z,15.4
2017-09-18T09:08:16.457Z,12.2
2017-09-18T09:09:17.257Z,11.3
2017-09-18T09:10:17.995Z,11.9
2017-09-18T09:11:18.744Z,11.0
2017-09-18T09:12:19.483Z,9.6
2017-09-18T09:13:20.301Z,8.6
2017-09-18T09:14:21.050Z,8.9
2017-09-18T09:15:22.262Z,11.0
2017-09-18T09:16:22.999Z,12.4
2017-09-18T09:17:23.824Z,10.2
2017-09-18T09:18:24.567Z,10.0
2017-09-18T09:19:25.376Z,11.2
2017-09-18T09:20:26.584Z,10.9
2017-09-18T09:21:27.317Z,10.1
2017-09-18T09:22:28.055Z,10.8
2017-09-18T09:23:28.794Z,11.5
2017-09-18T09:24:29.605Z,12.8
2017-09-18T09:25:30.597Z,15.2
2017-09-18T09:26:31.428Z,11.9
2017-09-18T09:27:32.165Z,12.8
2017-09-18T09:28:32.904Z,13.5
2017-09-18T09:29:33.649Z,13.8
2017-09-18T09:30:34.808Z,14.3
2017-09-18T09:31:35.537Z,14.5
2017-09-18T09:32:36.311Z,15.9
2017-09-18T09:33:37.136Z,16.1
2017-09-18T09:34:37.950Z,15.2
2017-09-18T09:35:38.736Z,15.9
2017-09-18T09:36:39.493Z,16.6
2017-09-18T09:37:40.279Z,15.7
2017-09-18T09:38:41.031Z,17.0
2017-09-18T09:39:41.836Z,18.3
2017-09-18T09:40:43.036Z,19.1
2017-09-18T09:41:43.854Z,17.7
2017-09-18T09:42:44.585Z,16.1
2017-09-18T09:43:45.330Z,16.4
2017-09-18T09:44:46.075Z,17.0
2017-09-18T09:45:47.167Z,15.8
2017-09-18T09:46:47.974Z,16.6
2017-09-18T09:47:48.714Z,17.3
2017-09-18T09:48:49.455Z,17.4
2017-09-18T09:49:50.193Z,17.8
2017-09-18T09:50:51.218Z,15.7
2017-09-18T09:51:52.015Z,15.8
2017-09-18T09:52:52.777Z,17.2
2017-09-18T09:53:53.500Z,16.5
2017-09-18T09:54:54.295Z,18.6
2017-09-18T09:55:55.499Z,16.0
2017-09-18T09:56:56.320Z,17.3
2017-09-18T09:57:57.117Z,19.2
2017-09-18T09:58:57.901Z,16.7
2017-09-18T09:59:58.691Z,18.8
2017-09-18T10:00:59.797Z,17.1
2017-09-18T10:02:00.534Z,18.3
2017-09-18T10:03:01.278Z,18.1
2017-09-18T10:04:02.019Z,17.4
2017-09-18T10:05:02.807Z,18.5
2017-09-18T10:06:04.026Z,20.2
2017-09-18T10:07:04.847Z,19.0
2017-09-18T10:08:05.679Z,18.3
2017-09-18T10:09:06.460Z,22.3
2017-09-18T10:10:07.204Z,22.5
2017-09-18T10:11:08.295Z,20.8
2017-09-18T10:12:09.106Z,25.2
2017-09-18T10:13:09.909Z,22.5
2017-09-18T10:14:10.714Z,25.2
2017-09-18T10:15:11.521Z,20.9
2017-09-18T10:16:12.659Z,18.7
2017-09-18T10:17:13.455Z,18.7
2017-09-18T10:18:14.276Z,19.4
2017-09-18T10:19:15.078Z,22.0
2017-09-18T10:20:15.894Z,21.4
2017-09-18T10:21:17.092Z,20.6
2017-09-18T10:22:17.895Z,22.4
2017-09-18T10:23:18.635Z,21.6
2017-09-18T10:24:19.392Z,22.4
2017-09-18T10:25:20.209Z,19.9
2017-09-18T10:26:21.322Z,19.3
2017-09-18T10:27:22.109Z,17.3
2017-09-18T10:28:22.854Z,19.2
2017-09-18T10:29:23.609Z,20.0
2017-09-18T10:30:24.431Z,18.0
2017-09-18T10:31:25.437Z,22.9
2017-09-18T10:32:26.254Z,19.9
2017-09-18T10:33:26.997Z,20.8
2017-09-18T10:34:27.784Z,20.5
2017-09-18T10:35:29.465Z,20.9
2017-09-18T10:36:30.861Z,29.1
2017-09-18T10:37:31.655Z,18.3
2017-09-18T10:38:32.394Z,19.3
2017-09-18T10:39:33.137Z,23.0
2017-09-18T10:40:33.925Z,20.2
2017-09-18T10:41:35.084Z,21.8
2017-09-18T10:42:35.825Z,18.5
2017-09-18T10:43:36.625Z,20.2
2017-09-18T10:44:37.374Z,19.0
2017-09-18T10:45:38.113Z,19.2
2017-09-18T10:46:39.254Z,20.4
2017-09-18T10:47:39.994Z,20.0
2017-09-18T10:48:40.735Z,21.9
2017-09-18T10:49:41.475Z,18.5
2017-09-18T10:50:42.217Z,20.2
2017-09-18T10:51:43.291Z,20.3
2017-09-18T10:52:44.100Z,23.9
2017-09-18T10:53:44.902Z,20.7
2017-09-18T10:54:45.644Z,24.8
2017-09-18T10:55:46.469Z,21.8
2017-09-18T10:56:47.635Z,23.3
2017-09-18T10:57:48.385Z,22.6
2017-09-18T10:58:49.199Z,24.2
2017-09-18T10:59:49.946Z,22.0
2017-09-18T11:00:50.769Z,18.7
2017-09-18T11:01:51.776Z,20.3
2017-09-18T11:02:52.586Z,19.2
2017-09-18T11:03:53.404Z,19.2
2017-09-18T11:04:54.146Z,20.0
2017-09-18T11:05:54.964Z,20.3
2017-09-18T11:06:56.056Z,21.7
2017-09-18T11:07:56.862Z,20.9
2017-09-18T11:08:57.681Z,18.7
2017-09-18T11:09:58.389Z,22.3
2017-09-18T11:10:59.126Z,26.5
2017-09-18T11:12:00.196Z,21.5
2017-09-18T11:13:01.011Z,24.1
2017-09-18T11:14:01.799Z,24.3
2017-09-18T11:15:02.535Z,21.5
2017-09-18T11:16:03.275Z,20.6
2017-09-18T11:17:04.370Z,21.1
2017-09-18T11:18:05.125Z,20.6
2017-09-18T11:19:05.869Z,22.6
2017-09-18T11:20:06.616Z,22.8
2017-09-18T11:21:07.387Z,20.4
2017-09-18T11:22:08.540Z,21.6
2017-09-18T11:23:09.299Z,24.2
2017-09-18T11:24:10.069Z,23.5
2017-09-18T11:25:10.817Z,22.8
2017-09-18T11:26:11.600Z,23.5
2017-09-18T11:27:12.585Z,22.9
2017-09-18T11:28:13.395Z,28.9
2017-09-18T11:29:14.129Z,22.8
2017-09-18T11:30:14.915Z,22.3
2017-09-18T11:31:15.729Z,28.1
2017-09-18T11:32:18.523Z,25.3
2017-09-18T11:33:19.454Z,32.2
2017-09-18T11:34:20.201Z,31.6
2017-09-18T11:35:21.023Z,27.8
2017-09-18T11:36:21.763Z,23.8
2017-09-18T11:37:22.844Z,26.3
2017-09-18T11:38:23.587Z,26.3
2017-09-18T11:39:24.396Z,26.0
2017-09-18T11:40:25.136Z,25.8
2017-09-18T11:41:25.943Z,27.7
2017-09-18T11:42:26.876Z,22.1
2017-09-18T11:43:27.622Z,24.5
2017-09-18T11:44:28.395Z,25.1
2017-09-18T11:45:29.218Z,23.0
2017-09-18T11:46:30.008Z,25.4
2017-09-18T11:47:30.741Z,31.2
2017-09-18T11:48:31.488Z,26.0
2017-09-18T11:49:32.572Z,24.8
2017-09-18T11:50:33.328Z,30.6
2017-09-18T11:51:34.135Z,24.7
2017-09-18T11:52:34.943Z,22.5
2017-09-18T11:53:35.687Z,23.3
2017-09-18T11:54:36.774Z,23.1
2017-09-18T11:55:37.511Z,25.2
2017-09-18T11:56:38.335Z,22.5
2017-09-18T11:57:39.135Z,24.3
2017-09-18T11:58:39.878Z,20.9
2017-09-18T11:59:40.709Z,23.5
2017-09-18T12:00:41.514Z,22.1
2017-09-18T12:01:42.672Z,23.3
2017-09-18T12:02:43.417Z,22.2
2017-09-18T12:03:44.219Z,19.8
2017-09-18T12:04:45.037Z,26.7
2017-09-18T12:05:45.861Z,24.1
2017-09-18T12:06:46.915Z,23.8
2017-09-18T12:07:48.113Z,22.1
2017-09-18T12:08:48.855Z,21.9
2017-09-18T12:09:49.613Z,23.8
2017-09-18T12:10:50.430Z,23.7
2017-09-18T12:11:51.564Z,24.1
2017-09-18T12:12:52.261Z,25.5
2017-09-18T12:13:52.997Z,25.9
2017-09-18T12:14:53.798Z,25.2
2017-09-18T12:15:54.534Z,28.7
2017-09-18T12:16:55.623Z,34.9
2017-09-18T12:17:56.366Z,27.5
2017-09-18T12:18:57.185Z,25.7
2017-09-18T12:19:58.005Z,29.6
2017-09-18T12:20:58.783Z,29.8
2017-09-18T12:21:59.528Z,30.8
2017-09-18T12:23:00.343Z,34.3
2017-09-18T12:24:01.077Z,37.9
2017-09-18T12:25:01.827Z,37.6
2017-09-18T12:26:02.565Z,40.4
2017-09-18T12:27:03.703Z,41.7
2017-09-18T12:28:04.445Z,50.4
2017-09-18T12:29:05.200Z,54.6
2017-09-18T12:30:05.986Z,73.9
2017-09-18T12:31:06.726Z,68.4
2017-09-18T12:32:07.870Z,86.4
2017-09-18T12:33:08.602Z,84.9
2017-09-18T12:34:09.351Z,92.2
2017-09-18T12:35:10.118Z,90.3
2017-09-18T12:36:10.920Z,84.2
2017-09-18T12:37:11.663Z,100.3
2017-09-18T12:38:12.694Z,109.3
2017-09-18T12:39:13.497Z,107.1
2017-09-18T12:40:14.288Z,126.5
2017-09-18T12:41:15.084Z,127.8
2017-09-18T12:42:15.903Z,112.9
2017-09-18T12:43:16.903Z,139.8
2017-09-18T12:44:17.813Z,123.5
2017-09-18T12:45:18.494Z,93.7
2017-09-18T12:46:19.228Z,78.5
2017-09-18T12:47:20.029Z,93.7
2017-09-18T12:48:21.117Z,93.8
2017-09-18T12:49:21.929Z,102.0
2017-09-18T12:50:22.745Z,86.5
2017-09-18T12:51:23.553Z,70.2
2017-09-18T12:52:24.301Z,62.4
2017-09-18T12:53:25.373Z,57.9
2017-09-18T12:54:26.122Z,48.6
2017-09-18T12:55:26.936Z,42.3
2017-09-18T12:56:27.744Z,37.5
2017-09-18T12:57:28.483Z,40.6
2017-09-18T12:58:29.213Z,37.8
2017-09-18T12:59:29.947Z,43.5
2017-09-18T13:00:30.783Z,38.2
2017-09-18T13:01:31.872Z,32.1
2017-09-18T13:02:32.694Z,29.9
2017-09-18T13:03:33.425Z,33.5
2017-09-18T13:04:34.167Z,30.1
2017-09-18T13:05:34.905Z,27.8
2017-09-18T13:06:36.122Z,27.5
2017-09-18T13:07:36.853Z,25.1
2017-09-18T13:08:37.584Z,23.4
2017-09-18T13:09:38.329Z,22.2
2017-09-18T13:10:39.114Z,21.1
2017-09-18T13:11:39.872Z,20.9
2017-09-18T13:12:40.638Z,21.9
2017-09-18T13:13:41.778Z,21.6